Flight Track Log - Related Links

Times and Time Zones

All times are in EDT time to prevent confusion due to time zone crossing. See the UAL4788 flight status page for this flight to view local times or setup timezone preferences in your user account.

Time Position Orientation Groundspeed Altitude Reporting Facility
EDT Latitude Longitude Course Direction KTS MPH feet Rate Location/Type
Mon 06:40:56 AM 42.9406 -83.7994 100° East 148 170 3,200  Level Cleveland Center
Mon 06:41:50 AM 42.9125 -83.7583 133° Southeast 171 197 4,600 1,617 Climbing Cleveland Center
Mon 06:42:51 AM 42.8847 -83.7086 127° Southeast 173 199 6,300 1,125 Climbing Cleveland Center
Mon 06:43:58 AM 42.8469 -83.6389 126° Southeast 210 242 7,000 331 Climbing Cleveland Center
Mon 06:44:58 AM 42.8053 -83.5603 126° Southeast 263 303 7,000  Level Cleveland Center
Mon 06:45:59 AM 42.7633 -83.4819 126° Southeast 256 295 7,000  Level Cleveland Center
Mon 06:46:00 AM 42.7029 -83.4156 100° East  Level Estimated
Mon 06:47:00 AM 42.7236 -83.4067 126° Southeast 251 289 7,000  Level Cleveland Center
Mon 06:48:00 AM 42.6858 -83.3286 123° Southeast 246 283 7,000  Level Cleveland Center
Mon 06:49:01 AM 42.6333 -83.2614 137° Southeast 247 284 7,000  Level Cleveland Center
Mon 06:50:02 AM 42.5828 -83.1944 136° Southeast 250 288 7,000  Level Cleveland Center
Mon 06:51:02 AM 42.5364 -83.1278 133° Southeast 248 285 7,000  Level Cleveland Center
Mon 06:51:57 AM 42.4917 -83.0667 135° Southeast 247 284 7,000  Level Cleveland Center
Mon 06:52:58 AM 42.4411 -83.0000 136° Southeast 245 282 7,000  Level Cleveland Center
Mon 06:53:58 AM 42.3922 -82.9364 136° Southeast 248 285 7,000  Level Cleveland Center
Mon 06:54:59 AM 42.3436 -82.8669 133° Southeast 249 287 7,000  Level Cleveland Center
Mon 06:56:09 AM 42.2908 -82.7950 135° Southeast 270 311 7,000  Level Cleveland Center
Mon 06:57:09 AM 42.2422 -82.7289 135° Southeast 264 304 7,000  Level Cleveland Center
Mon 06:58:09 AM 42.1933 -82.6628 135° Southeast 259 298 7,000  Level Cleveland Center
Mon 06:59:09 AM 42.1383 -82.5908 136° Southeast 259 298 7,000  Level Cleveland Center
Mon 07:00:10 AM 42.0894 -82.5250 135° Southeast 254 292 7,000  Level Cleveland Center
Mon 07:01:09 AM 42.0425 -82.4619 135° Southeast 254 292 7,000  Level Cleveland Center
Mon 07:02:04 AM 41.9956 -82.4047 138° Southeast 245 282 7,000  Level Cleveland Center
Mon 07:03:10 AM 41.9444 -82.3336 134° Southeast 248 285 7,000  Level Cleveland Center
Mon 07:03:41 AM 41.9200 -82.3022 136° Southeast 245 282 7,000  Level Cleveland Center
Mon 07:04:10 AM 41.8975 -82.2681 131° Southeast 241 277 7,000  Level Cleveland Center
Mon 07:04:47 AM 41.8647 -82.2281 138° Southeast 245 282 7,000  Level Cleveland Center
Mon 07:05:09 AM 41.8483 -82.2028 131° Southeast 241 277 7,000  Level Cleveland Center
Mon 07:05:42 AM 41.8217 -82.1797 147° Southeast 242 278 7,000  Level Cleveland Center
Mon 07:06:09 AM 41.7950 -82.1483 139° Southeast 236 272 7,000  Level Cleveland Center
Mon 07:06:36 AM 41.7722 -82.1283 147° Southeast 244 281 7,000  Level Cleveland Center
Mon 07:07:09 AM 41.7394 -82.0942 142° Southeast 246 283 7,000  Level Cleveland Center
Mon 07:07:37 AM 41.7167 -82.0742 147° Southeast 244 281 7,000  Level Cleveland Center
Mon 07:08:10 AM 41.6839 -82.0456 147° Southeast 246 283 7,000  Level Cleveland Center
Mon 07:08:38 AM 41.6550 -82.0228 149° Southeast 243 280 7,000  Level Cleveland Center
Mon 07:09:09 AM 41.6303 -81.9889 134° Southeast 246 283 7,000  Level Cleveland Center
Mon 07:09:38 AM 41.6161 -81.9469 114° Southeast 257 296 7,000 -492 Level Cleveland Center
Mon 07:10:10 AM 41.6042 -81.9022 110° East 241 277 6,500 -1,082 Descending Cleveland Center
Mon 07:10:39 AM 41.5903 -81.8547 111° Southeast 261 300 5,900 -1,220 Descending Cleveland Center
Mon 07:11:09 AM 41.5864 -81.8103 97° East 251 289 5,300 -900 Descending Cleveland Center
Mon 07:11:39 AM 41.5869 -81.7658 89° East 230 265 5,000 -857 Descending Cleveland Center
Mon 07:12:40 AM 41.5542 -81.7097 128° Southeast 184 212 4,000 -1,036 Descending Cleveland Center
Mon 07:13:29 AM 41.5231 -81.6814 146° Southeast 184 212 3,100 -550 Descending Cleveland Center
Mon 07:14:29 AM 41.4956 -81.7253 230° Southwest 144 166 3,000 -397 Descending Cleveland Center
Mon 07:15:30 AM 41.4639 -81.7692 226° Southwest 170 196 2,300 -678 Descending Cleveland Center
Mon 07:16:24 AM 41.4428 -81.8047 232° Southwest 118 136 1,700 -645 Descending Cleveland Center
Mon 07:17:31 AM 41.4194 -81.8403 229° Southwest 114 131 1,000 -627 Descending Cleveland Center
Mon 07:19:00 AM 41.4000 -81.8500 217° Southwest  Level FlightAware Approximate
Mon 07:26:00 AM 41.4094 -81.8547 217° Southwest  Level Estimated

Login

Don't have an account? Register now (free) for customized features, flight alerts, and more!